createdAt,value
2019-02-19T00:00:51.827Z,43.67
2019-02-19T00:06:15.862Z,39.10
2019-02-19T00:11:40.866Z,38.93
2019-02-19T00:17:04.751Z,43.50
2019-02-19T00:22:28.681Z,46.27
2019-02-19T00:27:52.291Z,45.30
2019-02-19T00:33:17.453Z,44.00
2019-02-19T00:38:41.561Z,43.30
2019-02-19T00:44:06.558Z,39.90
2019-02-19T00:49:30.190Z,42.60
2019-02-19T00:54:54.402Z,40.60
2019-02-19T01:00:18.839Z,38.60
2019-02-19T01:05:43.581Z,43.27
2019-02-19T01:11:08.168Z,43.13
2019-02-19T01:16:32.053Z,39.07
2019-02-19T01:21:55.891Z,41.73
2019-02-19T01:27:20.165Z,47.30
2019-02-19T01:32:44.025Z,45.47
2019-02-19T01:38:07.984Z,38.63
2019-02-19T01:43:31.742Z,37.43
2019-02-19T01:48:56.555Z,36.93
2019-02-19T01:54:20.935Z,38.40
2019-02-19T01:59:45.649Z,34.57
2019-02-19T02:05:10.121Z,34.00
2019-02-19T02:10:34.882Z,39.97
2019-02-19T02:15:58.825Z,35.53
2019-02-19T02:21:22.715Z,32.73
2019-02-19T02:26:46.501Z,30.63
2019-02-19T02:32:10.700Z,31.73
2019-02-19T02:37:35.289Z,34.00
2019-02-19T02:42:59.674Z,31.87
2019-02-19T02:48:23.975Z,34.57
2019-02-19T02:53:48.566Z,32.07
2019-02-19T02:59:13.699Z,33.93
2019-02-19T03:04:37.386Z,33.93
2019-02-19T03:10:01.822Z,34.70
2019-02-19T03:15:27.254Z,29.67
2019-02-19T03:20:51.493Z,34.00
2019-02-19T03:26:15.580Z,34.10
2019-02-19T03:31:39.508Z,32.13
2019-02-19T03:37:03.658Z,30.57
2019-02-19T03:42:29.118Z,28.00
2019-02-19T03:47:53.677Z,29.30
2019-02-19T03:53:18.431Z,29.60
2019-02-19T03:58:43.275Z,30.47
2019-02-19T04:04:07.818Z,32.70
2019-02-19T04:09:32.974Z,30.13
2019-02-19T04:14:57.265Z,28.30
2019-02-19T04:20:21.619Z,31.03
2019-02-19T04:25:46.068Z,30.77
2019-02-19T04:31:10.821Z,26.70
2019-02-19T04:36:35.219Z,28.77
2019-02-19T04:41:59.847Z,25.67
2019-02-19T04:47:23.915Z,34.00
2019-02-19T04:52:48.594Z,41.00
2019-02-19T04:58:12.650Z,32.37
2019-02-19T05:03:37.841Z,29.23
2019-02-19T05:09:02.289Z,27.33
2019-02-19T05:14:28.341Z,28.00
2019-02-19T05:19:52.867Z,26.80
2019-02-19T05:25:16.507Z,26.87
2019-02-19T05:30:43.049Z,25.77
2019-02-19T05:36:06.614Z,27.90
2019-02-19T05:41:31.228Z,30.90
2019-02-19T05:46:55.822Z,28.53
2019-02-19T05:52:20.295Z,28.97
2019-02-19T05:57:45.092Z,29.07
2019-02-19T06:03:09.199Z,30.93
2019-02-19T06:08:34.118Z,30.30
2019-02-19T06:13:58.471Z,30.50
2019-02-19T06:19:23.264Z,29.90
2019-02-19T06:24:47.123Z,26.57
2019-02-19T06:30:12.686Z,27.80
2019-02-19T06:35:37.283Z,36.70
2019-02-19T06:41:02.015Z,26.17
2019-02-19T06:46:27.047Z,27.13
2019-02-19T06:51:50.429Z,29.70
2019-02-19T06:57:15.097Z,29.40
2019-02-19T07:03:16.453Z,28.47
2019-02-19T07:08:40.426Z,30.40
2019-02-19T07:14:04.817Z,31.17
2019-02-19T07:19:29.044Z,28.70
2019-02-19T07:24:54.420Z,27.30
2019-02-19T07:30:18.104Z,27.90
2019-02-19T07:35:42.753Z,29.07
2019-02-19T07:41:06.567Z,26.07
2019-02-19T07:46:30.942Z,28.47
2019-02-19T07:51:55.856Z,24.47
2019-02-19T07:57:19.603Z,29.60
2019-02-19T08:02:44.072Z,33.53
2019-02-19T08:08:08.890Z,32.97
2019-02-19T08:13:33.724Z,27.80
2019-02-19T08:18:57.499Z,24.60
2019-02-19T08:24:21.958Z,32.27
2019-02-19T08:29:45.905Z,28.17
2019-02-19T08:35:10.516Z,26.93
2019-02-19T08:40:34.821Z,27.87
2019-02-19T08:45:58.699Z,26.90
2019-02-19T08:51:23.166Z,26.70
2019-02-19T08:56:47.608Z,24.87
2019-02-19T09:02:11.807Z,23.57
2019-02-19T09:07:36.295Z,26.17
2019-02-19T09:13:00.437Z,25.73
2019-02-19T09:18:25.247Z,27.17
2019-02-19T09:23:50.336Z,28.47
2019-02-19T09:29:14.714Z,32.90
2019-02-19T09:34:39.181Z,25.37
2019-02-19T09:40:04.079Z,27.27
2019-02-19T09:45:28.642Z,26.07
2019-02-19T09:50:53.434Z,28.77
2019-02-19T09:56:18.012Z,27.67
2019-02-19T10:01:41.959Z,27.07
2019-02-19T10:07:06.858Z,29.20
2019-02-19T10:12:31.411Z,32.43
2019-02-19T10:17:55.546Z,35.37
2019-02-19T10:23:20.284Z,39.27
2019-02-19T10:28:44.619Z,37.40
2019-02-19T10:34:08.574Z,39.03
2019-02-19T10:39:32.429Z,38.10
2019-02-19T10:44:56.877Z,40.57
2019-02-19T10:50:21.763Z,38.70
2019-02-19T10:55:45.683Z,42.40
2019-02-19T11:01:09.627Z,42.90
2019-02-19T11:06:34.137Z,41.47
2019-02-19T11:11:58.176Z,44.77
2019-02-19T11:17:21.885Z,38.43
2019-02-19T11:22:46.600Z,42.07
2019-02-19T11:28:12.263Z,41.17
2019-02-19T11:33:36.735Z,38.40
2019-02-19T11:39:01.302Z,38.90
2019-02-19T11:44:26.266Z,43.80
2019-02-19T11:49:50.003Z,35.70
2019-02-19T11:55:14.787Z,34.80
2019-02-19T12:00:40.610Z,29.70
2019-02-19T12:06:05.352Z,31.87
2019-02-19T12:11:29.964Z,32.40
2019-02-19T12:16:54.833Z,31.40
2019-02-19T12:22:18.726Z,32.03
2019-02-19T12:27:43.019Z,33.97
2019-02-19T12:33:07.725Z,32.03
2019-02-19T12:38:31.669Z,33.37
2019-02-19T12:43:56.597Z,30.27
2019-02-19T12:49:21.365Z,35.13
2019-02-19T12:54:45.145Z,35.57
2019-02-19T13:00:11.762Z,31.63
2019-02-19T13:05:35.455Z,35.03
2019-02-19T13:11:00.042Z,31.50
2019-02-19T13:16:24.887Z,32.43
2019-02-19T13:21:49.621Z,32.87
2019-02-19T13:27:13.460Z,35.40
2019-02-19T13:32:37.962Z,33.80
2019-02-19T13:38:02.411Z,33.43
2019-02-19T13:43:26.230Z,36.50
2019-02-19T13:48:50.032Z,32.33
2019-02-19T13:54:21.749Z,35.47
2019-02-19T13:59:46.529Z,34.70
2019-02-19T14:05:11.481Z,37.03
2019-02-19T14:10:36.275Z,31.93
2019-02-19T14:16:09.470Z,28.33
2019-02-19T14:21:58.777Z,31.17
2019-02-19T14:27:33.404Z,32.50
2019-02-19T14:33:22.416Z,28.23
2019-02-19T14:39:07.810Z,29.30
2019-02-19T14:44:51.379Z,26.47
2019-02-19T14:50:44.902Z,27.73
2019-02-19T14:56:27.440Z,29.67
2019-02-19T15:02:08.079Z,25.83
2019-02-19T15:07:44.919Z,31.73
2019-02-19T15:13:24.191Z,24.30
2019-02-19T15:19:06.640Z,27.97
2019-02-19T15:24:55.323Z,25.70
2019-02-19T15:30:40.095Z,25.83
2019-02-19T15:36:23.831Z,27.60
2019-02-19T15:42:05.459Z,26.40
2019-02-19T15:47:47.397Z,27.97
2019-02-19T15:53:21.489Z,29.20
2019-02-19T15:58:53.262Z,24.37
2019-02-19T16:04:23.809Z,23.60
2019-02-19T16:09:54.893Z,22.47
2019-02-19T16:15:46.350Z,26.67
2019-02-19T16:21:45.136Z,21.63
2019-02-19T16:27:19.166Z,24.23
2019-02-19T16:33:02.982Z,20.17
2019-02-19T16:39:01.168Z,22.20
2019-02-19T16:44:40.757Z,17.83
2019-02-19T16:50:28.190Z,20.10
2019-02-19T16:56:13.999Z,23.47
2019-02-19T17:01:55.823Z,20.73
2019-02-19T17:07:37.478Z,17.80
2019-02-19T17:13:14.548Z,15.03
2019-02-19T17:19:03.709Z,16.03
2019-02-19T17:24:46.525Z,20.23
2019-02-19T17:30:29.633Z,24.00
2019-02-19T17:36:12.699Z,16.13
2019-02-19T17:42:00.035Z,16.90
2019-02-19T17:47:45.717Z,17.10
2019-02-19T17:53:27.242Z,15.70
2019-02-19T17:59:03.779Z,13.60
2019-02-19T18:04:37.734Z,15.80
2019-02-19T18:10:15.123Z,17.27
2019-02-19T18:15:50.581Z,15.30
2019-02-19T18:21:14.373Z,16.83
2019-02-19T18:26:38.195Z,13.30
2019-02-19T18:32:02.655Z,14.63
2019-02-19T18:37:26.361Z,14.67
2019-02-19T18:42:50.015Z,12.53
2019-02-19T18:48:16.047Z,11.87
2019-02-19T18:53:39.842Z,13.53
2019-02-19T18:59:06.225Z,12.30
2019-02-19T19:04:30.590Z,14.63
2019-02-19T19:09:54.392Z,14.57
2019-02-19T19:15:18.001Z,18.20
2019-02-19T19:20:42.685Z,15.10
2019-02-19T19:26:06.990Z,16.17
2019-02-19T19:31:33.928Z,15.47
2019-02-19T19:36:58.789Z,23.23
2019-02-19T19:42:23.502Z,13.53
2019-02-19T19:47:47.372Z,15.00
2019-02-19T19:53:11.824Z,12.33
2019-02-19T19:58:36.467Z,14.23
2019-02-19T20:04:00.784Z,14.60
2019-02-19T20:09:25.579Z,17.30
2019-02-19T20:14:49.258Z,19.47
2019-02-19T20:20:13.749Z,15.10
2019-02-19T20:25:38.472Z,15.83
2019-02-19T20:31:02.997Z,12.27
2019-02-19T20:36:27.331Z,15.13
2019-02-19T20:41:51.421Z,16.13
2019-02-19T20:47:16.497Z,17.77
2019-02-19T20:52:41.161Z,16.13
2019-02-19T20:58:05.885Z,14.63
2019-02-19T21:03:30.085Z,14.70
2019-02-19T21:08:54.899Z,14.50
2019-02-19T21:14:19.145Z,15.20
2019-02-19T21:19:43.981Z,15.33
2019-02-19T21:25:09.204Z,17.03
2019-02-19T21:30:33.715Z,13.13
2019-02-19T21:35:58.894Z,16.53
2019-02-19T21:41:23.297Z,14.47
2019-02-19T21:46:47.496Z,16.00
2019-02-19T21:52:12.153Z,14.60
2019-02-19T21:57:36.793Z,15.70
2019-02-19T22:03:01.074Z,15.23
2019-02-19T22:08:26.010Z,13.10
2019-02-19T22:13:51.142Z,18.27
2019-02-19T22:19:15.460Z,13.93
2019-02-19T22:24:41.236Z,14.23
2019-02-19T22:30:05.517Z,11.93
2019-02-19T22:35:29.556Z,11.50
2019-02-19T22:40:55.406Z,8.77
2019-02-19T22:46:20.242Z,10.00
2019-02-19T22:51:43.914Z,12.07
2019-02-19T22:57:08.074Z,10.50
2019-02-19T23:02:33.504Z,7.03
2019-02-19T23:07:58.426Z,13.53
2019-02-19T23:13:22.733Z,9.00
2019-02-19T23:18:46.386Z,13.50
2019-02-19T23:24:10.571Z,17.23
2019-02-19T23:29:34.174Z,15.07
2019-02-19T23:35:14.594Z,15.67
2019-02-19T23:40:38.429Z,16.40
2019-02-19T23:46:02.465Z,17.70
2019-02-19T23:51:26.916Z,18.80
2019-02-19T23:56:51.330Z,19.17
